Moroni, Moroni Prince Said Ibrahim International Airport (FMCH)

NameMoroni Prince Said Ibrahim International Airport
CityMoroni
CountryComoros
ICAOFMCH
IATAHAH
Altitude28 m
CoordinatesGoogle Map
Live Air TrafficLiveATC.net
METARFMCH 250900Z 28020KT 9000 -RA SCT020CB BKN030 27/25 Q1011 TEMPO 3000 SHRA
2020-02-25 09:00:00 Wind: West (280°) 10.29 m/s - Visibility: 3000 m - Weather: Light Rain / Showers Rain - Temperature: 27 °C - Dew point: 25 °C - Humidity: 88.8% - Pressure: 1011 hPa
Statistics

The table below shows the detailed information of all flights to/from Moroni, Moroni Prince Said Ibrahim International Airport (FMCH).